Time;durP1;ratioP1;P1;durP2;ratioP2;P2;SDS_P1;SDS_P2;PMS_P1;PMS_P2;Temp;Humidity;BMP_temperature;BMP_pressure;BME280_temperature;BME280_humidity;BME280_pressure;Samples;Min_cycle;Max_cycle;Signal;HPM_P1;HPM_P2
2023/12/06 00:01:24;;;;;;;16.13;10.73;;;;;;;3.53;100.00;99646.50;5049064;28;20043;-67
2023/12/06 00:03:52;;;;;;;17.27;12.00;;;;;;;3.45;100.00;99643.25;5063538;28;20063;-67
2023/12/06 00:06:21;;;;;;;17.63;11.00;;;;;;;3.48;100.00;99651.84;5079313;28;20410;-67
2023/12/06 00:08:53;;;;;;;16.35;11.95;;;;;;;3.49;100.00;99653.56;5061511;28;20050;-68
2023/12/06 00:11:24;;;;;;;16.00;10.80;;;;;;;3.48;100.00;99656.22;5063336;28;20044;-67
2023/12/06 00:13:54;;;;;;;15.53;10.53;;;;;;;3.51;100.00;99658.75;5065387;28;20048;-69
2023/12/06 00:16:23;;;;;;;16.70;11.43;;;;;;;3.55;100.00;99659.53;5065404;28;20598;-65
2023/12/06 00:18:54;;;;;;;17.02;11.30;;;;;;;3.55;100.00;99657.78;5065223;28;20090;-67
2023/12/06 00:21:23;;;;;;;14.93;9.65;;;;;;;3.53;100.00;99656.97;5067032;28;20071;-68
2023/12/06 00:23:52;;;;;;;14.00;9.77;;;;;;;3.53;100.00;99659.56;5080151;28;20441;-67
2023/12/06 00:26:20;;;;;;;17.73;10.95;;;;;;;3.50;100.00;99654.44;5066244;28;20056;-66
2023/12/06 00:28:49;;;;;;;15.48;10.52;;;;;;;3.52;100.00;99663.94;5075489;28;20098;-67
2023/12/06 00:31:18;;;;;;;17.17;11.43;;;;;;;3.47;100.00;99662.38;5065306;28;20131;-69
2023/12/06 00:33:46;;;;;;;16.67;11.32;;;;;;;3.48;100.00;99671.94;5083012;28;20572;-67
2023/12/06 00:36:17;;;;;;;15.88;10.73;;;;;;;3.47;100.00;99664.97;5077575;28;20379;-67
2023/12/06 00:38:45;;;;;;;19.80;11.57;;;;;;;3.47;100.00;99670.22;5057887;28;20041;-66
2023/12/06 00:41:14;;;;;;;17.73;11.25;;;;;;;3.47;100.00;99670.22;5065812;28;20036;-68
2023/12/06 00:43:42;;;;;;;18.90;10.90;;;;;;;3.45;100.00;99678.16;5064929;28;20048;-66
2023/12/06 00:46:14;;;;;;;15.75;10.23;;;;;;;3.45;100.00;99672.91;5065052;28;20048;-67
2023/12/06 00:48:41;;;;;;;15.55;10.27;;;;;;;3.47;100.00;99683.31;5076136;28;20910;-67
2023/12/06 00:51:09;;;;;;;16.77;10.35;;;;;;;3.47;100.00;99676.31;5061907;28;20075;-67
2023/12/06 00:53:37;;;;;;;17.20;10.07;;;;;;;3.48;100.00;99683.25;5063498;28;20111;-67
2023/12/06 00:56:12;;;;;;;18.27;10.98;;;;;;;3.51;100.00;99687.56;5044982;28;20060;-67
2023/12/06 00:58:42;;;;;;;16.92;10.25;;;;;;;3.51;100.00;99692.78;5063166;28;20052;-67
2023/12/06 01:01:11;;;;;;;16.50;10.98;;;;;;;3.49;100.00;99684.13;5047164;28;20049;-67
2023/12/06 01:03:42;;;;;;;17.70;11.05;;;;;;;3.47;100.00;99691.16;5069608;28;20542;-68
2023/12/06 01:06:10;;;;;;;13.98;9.63;;;;;;;3.48;100.00;99698.09;5069864;28;20433;-66
2023/12/06 01:08:39;;;;;;;15.80;9.63;;;;;;;3.46;100.00;99685.06;5066363;28;20063;-67
2023/12/06 01:11:09;;;;;;;15.45;10.07;;;;;;;3.51;100.00;99698.03;5068347;28;20044;-67
2023/12/06 01:13:38;;;;;;;14.50;9.30;;;;;;;3.53;100.00;99697.09;5065163;28;20064;-67
2023/12/06 01:16:07;;;;;;;14.32;9.80;;;;;;;3.58;100.00;99698.72;5043367;28;20065;-68
2023/12/06 01:18:36;;;;;;;13.73;9.10;;;;;;;3.57;100.00;99704.84;5063620;28;20048;-67
2023/12/06 01:21:06;;;;;;;13.93;9.38;;;;;;;3.51;100.00;99701.50;5064703;28;20040;-67
2023/12/06 01:23:34;;;;;;;14.68;9.30;;;;;;;3.49;100.00;99705.06;5064943;28;20054;-68
2023/12/06 01:26:03;;;;;;;13.82;8.70;;;;;;;3.47;100.00;99704.25;5078680;28;20076;-67
2023/12/06 01:28:31;;;;;;;14.95;9.15;;;;;;;3.43;100.00;99702.63;5060035;28;20044;-68
2023/12/06 01:30:59;;;;;;;13.43;9.18;;;;;;;3.43;100.00;99710.50;5064415;28;20045;-66
2023/12/06 01:33:29;;;;;;;11.88;8.68;;;;;;;3.43;100.00;99720.97;5062796;28;20766;-66
2023/12/06 01:35:57;;;;;;;12.13;8.60;;;;;;;3.42;100.00;99716.63;5063285;28;20040;-66
2023/12/06 01:38:26;;;;;;;11.68;8.52;;;;;;;3.41;100.00;99713.16;5059599;28;20053;-67
2023/12/06 01:40:55;;;;;;;14.25;8.45;;;;;;;3.41;100.00;99725.38;5047540;28;20048;-66
2023/12/06 01:43:22;;;;;;;12.93;8.35;;;;;;;3.38;100.00;99717.59;5063918;28;20044;-67
2023/12/06 01:45:51;;;;;;;13.82;8.30;;;;;;;3.39;100.00;99724.56;5063231;28;20083;-67
2023/12/06 01:48:24;;;;;;;13.85;8.05;;;;;;;3.37;100.00;99724.59;5056801;28;20713;-67
2023/12/06 01:50:53;;;;;;;11.93;7.85;;;;;;;3.36;100.00;99728.13;5064730;28;20063;-67
2023/12/06 01:53:21;;;;;;;14.57;8.45;;;;;;;3.34;100.00;99721.19;5064528;28;20044;-68
2023/12/06 01:55:50;;;;;;;11.63;7.88;;;;;;;3.35;100.00;99723.78;5062445;28;20048;-66
2023/12/06 01:58:19;;;;;;;10.73;7.70;;;;;;;3.37;100.00;99723.75;5059307;28;20048;-65
2023/12/06 02:00:48;;;;;;;13.10;7.93;;;;;;;3.36;100.00;99724.63;5060698;28;20051;-66
2023/12/06 02:03:19;;;;;;;14.88;8.32;;;;;;;3.28;100.00;99717.03;5063721;28;20159;-65
2023/12/06 02:05:49;;;;;;;11.52;7.70;;;;;;;3.30;100.00;99724.84;5080841;28;20556;-66
2023/12/06 02:08:17;;;;;;;10.85;7.28;;;;;;;3.35;100.00;99736.00;5057430;28;20052;-68
2023/12/06 02:10:48;;;;;;;13.30;7.47;;;;;;;3.38;100.00;99738.53;5082262;28;20055;-68
2023/12/06 02:13:20;;;;;;;12.93;7.45;;;;;;;3.40;100.00;99734.97;5044728;28;20059;-67
2023/12/06 02:15:48;;;;;;;12.18;7.45;;;;;;;3.39;100.00;99737.63;5068988;28;20059;-67
2023/12/06 02:18:17;;;;;;;10.05;7.00;;;;;;;3.39;100.00;99729.78;5088619;28;20090;-68
2023/12/06 02:20:47;;;;;;;13.25;7.78;;;;;;;3.39;100.00;99735.88;5073186;28;20037;-68
2023/12/06 02:23:16;;;;;;;13.05;7.60;;;;;;;3.37;100.00;99742.06;5066138;28;20101;-68
2023/12/06 02:25:46;;;;;;;10.98;7.10;;;;;;;3.37;100.00;99742.91;5062671;28;20390;-66
2023/12/06 02:28:14;;;;;;;10.82;6.70;;;;;;;3.37;100.00;99742.91;5059591;28;20051;-66
2023/12/06 02:30:42;;;;;;;11.18;7.57;;;;;;;3.38;100.00;99731.56;5061931;28;20041;-67
2023/12/06 02:33:10;;;;;;;11.45;6.68;;;;;;;3.46;100.00;99733.97;5063037;28;20110;-67
2023/12/06 02:35:46;;;;;;;14.95;7.07;;;;;;;3.52;100.00;99741.63;5062529;28;20517;-67
2023/12/06 02:38:18;;;;;;;12.40;7.10;;;;;;;3.52;100.00;99737.25;5059556;28;20103;-66
2023/12/06 02:40:51;;;;;;;9.57;7.00;;;;;;;3.55;100.00;99738.94;5082271;28;20516;-66
2023/12/06 02:43:19;;;;;;;9.82;6.88;;;;;;;3.59;100.00;99739.69;5071675;28;20048;-66
2023/12/06 02:45:48;;;;;;;9.75;7.07;;;;;;;3.63;100.00;99742.16;5064710;28;20036;-66
2023/12/06 02:48:18;;;;;;;10.43;7.25;;;;;;;3.66;100.00;99747.31;5076619;28;20046;-65
2023/12/06 02:50:46;;;;;;;10.80;6.82;;;;;;;3.69;100.00;99749.00;5067393;28;20098;-66
2023/12/06 02:53:15;;;;;;;12.52;7.53;;;;;;;3.69;100.00;99746.38;5062005;28;20053;-66
2023/12/06 02:55:43;;;;;;;10.43;6.97;;;;;;;3.64;100.00;99751.72;5068941;28;20393;-67
2023/12/06 02:58:13;;;;;;;8.30;6.30;;;;;;;3.60;100.00;99752.75;5066261;28;20135;-65
2023/12/06 03:00:41;;;;;;;9.73;6.43;;;;;;;3.57;100.00;99746.72;5052318;28;20045;-67
2023/12/06 03:03:09;;;;;;;9.68;6.85;;;;;;;3.56;100.00;99742.41;5087959;28;20525;-66
2023/12/06 03:05:37;;;;;;;10.50;7.03;;;;;;;3.58;100.00;99748.44;5069127;28;20448;-65
2023/12/06 03:08:08;;;;;;;10.43;6.78;;;;;;;3.55;100.00;99746.78;5062008;28;20509;-66
2023/12/06 03:10:36;;;;;;;9.98;6.72;;;;;;;3.56;100.00;99745.88;5080509;28;20098;-66
2023/12/06 03:13:04;;;;;;;9.45;6.72;;;;;;;3.58;100.00;99746.69;5065231;28;20040;-67
2023/12/06 03:15:34;;;;;;;9.55;7.05;;;;;;;3.62;100.00;99752.72;5067869;28;20366;-68
2023/12/06 03:18:02;;;;;;;10.13;6.70;;;;;;;3.67;100.00;99750.78;5079031;28;20068;-66
2023/12/06 03:20:31;;;;;;;10.52;6.47;;;;;;;3.72;100.00;99749.75;5082521;28;20041;-67
2023/12/06 03:22:59;;;;;;;9.15;6.60;;;;;;;3.70;100.00;99753.31;5082095;28;20049;-65
2023/12/06 03:25:27;;;;;;;11.50;7.03;;;;;;;3.67;100.00;99756.88;5068235;28;20046;-66
2023/12/06 03:27:56;;;;;;;10.43;7.28;;;;;;;3.67;100.00;99753.41;5066531;28;20063;-66
2023/12/06 03:30:23;;;;;;;11.27;7.45;;;;;;;3.66;100.00;99760.41;5044383;28;20851;-67
2023/12/06 03:33:04;;;;;;;10.48;7.43;;;;;;;3.64;100.00;99761.34;5067856;28;20429;-67
2023/12/06 03:35:33;;;;;;;11.48;7.32;;;;;;;3.61;100.00;99761.47;5073048;28;20083;-67
2023/12/06 03:38:01;;;;;;;10.20;7.25;;;;;;;3.60;100.00;99760.59;5072312;28;20406;-66
2023/12/06 03:40:30;;;;;;;14.27;8.02;;;;;;;3.59;100.00;99751.03;5066948;28;20049;-66
2023/12/06 03:42:57;;;;;;;11.77;7.90;;;;;;;3.63;100.00;99755.25;5089752;28;20131;-66
2023/12/06 03:45:25;;;;;;;10.40;7.53;;;;;;;3.64;100.00;99759.59;5069039;28;20095;-67
2023/12/06 03:47:55;;;;;;;11.98;8.02;;;;;;;3.66;100.00;99762.16;5066385;28;20079;-67
2023/12/06 03:50:27;;;;;;;12.88;8.80;;;;;;;3.64;100.00;99762.22;5063611;28;20581;-67
2023/12/06 03:52:56;;;;;;;12.05;8.57;;;;;;;3.66;100.00;99770.03;5066223;28;20076;-67
2023/12/06 03:55:24;;;;;;;13.23;8.25;;;;;;;3.70;100.00;99769.91;5064577;28;20059;-66
2023/12/06 03:57:51;;;;;;;13.73;9.02;;;;;;;3.74;100.00;99762.81;5061342;28;20416;-66
2023/12/06 04:00:20;;;;;;;15.23;9.32;;;;;;;3.68;100.00;99765.59;5061295;28;20052;-66
2023/12/06 04:02:48;;;;;;;14.35;10.07;;;;;;;3.63;100.00;99757.00;5078627;28;20429;-66
2023/12/06 04:05:16;;;;;;;14.70;9.57;;;;;;;3.68;100.00;99769.06;5063517;28;20071;-66
2023/12/06 04:07:45;;;;;;;16.38;9.93;;;;;;;3.71;100.00;99774.22;5064478;28;20147;-64
2023/12/06 04:10:13;;;;;;;14.32;9.45;;;;;;;3.71;100.00;99774.22;5061802;28;20048;-66
2023/12/06 04:12:41;;;;;;;15.25;10.00;;;;;;;3.71;100.00;99768.13;5063888;28;20075;-66
2023/12/06 04:15:11;;;;;;;16.25;10.50;;;;;;;3.73;100.00;99771.56;5080711;28;20114;-65
2023/12/06 04:17:39;;;;;;;13.13;8.38;;;;;;;3.71;100.00;99771.63;5063389;28;20086;-65
2023/12/06 04:20:09;;;;;;;16.35;10.93;;;;;;;3.68;100.00;99774.31;5063604;28;20044;-66
2023/12/06 04:22:40;;;;;;;18.65;10.90;;;;;;;3.66;100.00;99763.03;5067035;28;20036;-66
2023/12/06 04:25:10;;;;;;;14.25;10.23;;;;;;;3.66;100.00;99776.13;5063126;28;20044;-66
2023/12/06 04:27:37;;;;;;;19.25;11.55;;;;;;;3.66;100.00;99781.34;5063702;28;20045;-64
2023/12/06 04:30:07;;;;;;;17.23;11.35;;;;;;;3.65;100.00;99776.16;5060251;28;20044;-66
2023/12/06 04:32:35;;;;;;;19.88;12.18;;;;;;;3.65;100.00;99782.25;5065891;28;20119;-68
2023/12/06 04:35:05;;;;;;;20.75;12.23;;;;;;;3.63;100.00;99784.06;5064886;28;20455;-66
2023/12/06 04:37:33;;;;;;;21.20;12.23;;;;;;;3.61;100.00;99788.50;5065099;28;20032;-66
2023/12/06 04:40:01;;;;;;;19.92;12.27;;;;;;;3.62;100.00;99790.19;5058980;28;20044;-68
2023/12/06 04:42:31;;;;;;;22.27;12.60;;;;;;;3.59;100.00;99778.97;5082050;28;20036;-66
2023/12/06 04:44:59;;;;;;;16.73;9.50;;;;;;;3.63;100.00;99791.03;5064542;28;20074;-68
2023/12/06 04:47:27;;;;;;;19.10;12.30;;;;;;;3.61;100.00;99792.88;5066103;28;20044;-67
2023/12/06 04:49:58;;;;;;;;;;;;;;;3.62;100.00;99795.41;5080103;28;20112;-67
2023/12/06 04:52:26;;;;;;;18.60;11.48;;;;;;;3.62;100.00;99799.84;5067564;28;20395;-67
2023/12/06 04:54:54;;;;;;;19.88;12.63;;;;;;;3.63;100.00;99810.22;5061725;28;20044;-67
2023/12/06 04:57:22;;;;;;;19.98;11.73;;;;;;;3.64;100.00;99811.09;5062973;28;20090;-67
2023/12/06 04:59:52;;;;;;;21.40;13.05;;;;;;;3.67;100.00;99808.38;5077048;28;20048;-67
2023/12/06 05:02:21;;;;;;;22.30;12.45;;;;;;;3.68;100.00;99804.88;5067576;28;20389;-66
2023/12/06 05:04:51;;;;;;;21.25;12.75;;;;;;;3.60;100.00;99807.72;5070632;28;20048;-67
2023/12/06 05:07:19;;;;;;;19.52;12.02;;;;;;;3.59;100.00;99805.16;5073076;28;20048;-67
2023/12/06 05:09:50;;;;;;;21.85;12.55;;;;;;;3.60;100.00;99812.97;5076795;28;20044;-68
2023/12/06 05:12:16;;;;;;;18.20;11.18;;;;;;;3.58;100.00;99796.44;5064688;28;20061;-67
2023/12/06 05:14:45;;;;;;;18.42;11.25;;;;;;;3.63;100.00;99807.63;5065528;28;20115;-67
2023/12/06 05:17:14;;;;;;;19.38;11.88;;;;;;;3.66;100.00;99809.28;5077116;28;20056;-67
2023/12/06 05:19:43;;;;;;;19.42;11.85;;;;;;;3.68;100.00;99810.13;5073716;28;20040;-67
2023/12/06 05:22:11;;;;;;;21.13;12.82;;;;;;;3.67;100.00;99814.50;5081454;28;20558;-67
2023/12/06 05:24:39;;;;;;;20.98;12.95;;;;;;;3.63;100.00;99815.47;5081140;28;20045;-68
2023/12/06 05:27:08;;;;;;;21.90;13.70;;;;;;;3.59;100.00;99811.25;5065701;28;20105;-67
2023/12/06 05:29:35;;;;;;;24.15;14.10;;;;;;;3.57;100.00;99813.03;5060348;28;20050;-67
2023/12/06 05:32:03;;;;;;;25.25;13.60;;;;;;;3.54;100.00;99823.59;5060222;28;20048;-67
2023/12/06 05:34:32;;;;;;;22.80;13.65;;;;;;;3.53;100.00;99829.72;5064154;28;20135;-67
2023/12/06 05:37:01;;;;;;;25.13;14.48;;;;;;;3.54;100.00;99841.91;5065155;28;20053;-67
2023/12/06 05:39:31;;;;;;;22.52;13.65;;;;;;;3.55;100.00;99840.16;5073281;28;20142;-67
2023/12/06 05:42:00;;;;;;;28.50;15.23;;;;;;;3.54;100.00;99841.91;5039603;28;20052;-69
2023/12/06 05:44:28;;;;;;;24.00;14.70;;;;;;;3.46;100.00;99828.19;5062860;28;20145;-67
2023/12/06 05:46:56;;;;;;;27.33;14.75;;;;;;;3.53;100.00;99842.81;5074653;28;20056;-66
2023/12/06 05:49:24;;;;;;;26.00;14.52;;;;;;;3.51;100.00;99842.84;5072868;28;20465;-66
2023/12/06 05:51:53;;;;;;;26.88;14.00;;;;;;;3.47;100.00;99842.97;5055502;28;20090;-67
2023/12/06 05:54:21;;;;;;;25.98;14.68;;;;;;;3.47;100.00;99843.81;5065254;28;20104;-71
2023/12/06 05:56:49;;;;;;;28.40;14.95;;;;;;;3.45;100.00;99855.25;5064175;28;20037;-66
2023/12/06 05:59:18;;;;;;;23.80;14.00;;;;;;;3.42;100.00;99857.97;5056189;28;20166;-66
2023/12/06 06:01:45;;;;;;;21.13;13.75;;;;;;;3.32;100.00;99844.22;5063429;28;20086;-66
2023/12/06 06:04:14;;;;;;;20.00;12.63;;;;;;;3.36;100.00;99860.72;5064477;28;20238;-67
2023/12/06 06:06:49;;;;;;;18.92;12.90;;;;;;;3.34;100.00;99870.38;5066240;28;20080;-66
2023/12/06 06:09:19;;;;;;;19.25;12.32;;;;;;;3.30;100.00;99863.53;5077084;28;20044;-68
2023/12/06 06:11:49;;;;;;;;;;;;;;;3.29;100.00;99880.13;5080392;28;20045;-66
2023/12/06 06:14:17;;;;;;;18.30;12.27;;;;;;;3.26;100.00;99882.81;5080487;28;20014;-67
2023/12/06 06:16:45;;;;;;;18.30;12.20;;;;;;;3.24;100.00;99881.97;5066040;28;20060;-66
2023/12/06 06:19:12;;;;;;;15.90;11.52;;;;;;;3.22;100.00;99873.31;5060972;28;20059;-66
2023/12/06 06:21:41;;;;;;;17.02;11.57;;;;;;;3.21;100.00;99874.19;5059042;28;20097;-66
2023/12/06 06:24:09;;;;;;;19.88;13.15;;;;;;;3.23;100.00;99875.03;5081242;28;22247;-67
2023/12/06 06:26:39;;;;;;;20.15;13.05;;;;;;;3.23;100.00;99880.25;5066747;28;20135;-67
2023/12/06 06:29:08;;;;;;;;;;;;;;;3.22;100.00;99887.25;5065004;28;20091;-67
2023/12/06 06:31:36;;;;;;;18.15;11.85;;;;;;;3.22;100.00;99886.38;5061761;28;19939;-67
2023/12/06 06:34:04;;;;;;;19.95;12.65;;;;;;;3.22;100.00;99886.38;5066406;28;20072;-67
2023/12/06 06:36:32;;;;;;;17.35;12.00;;;;;;;3.20;100.00;99883.81;5069069;28;20049;-67
2023/12/06 06:39:02;;;;;;;20.60;12.20;;;;;;;3.16;100.00;99890.88;5065952;28;20816;-66
2023/12/06 06:41:30;;;;;;;18.30;12.10;;;;;;;3.15;100.00;99897.00;5067825;28;20125;-66
2023/12/06 06:43:59;;;;;;;16.33;11.68;;;;;;;3.14;100.00;99902.28;5070091;28;20051;-69
2023/12/06 06:46:27;;;;;;;14.73;10.57;;;;;;;3.10;100.00;99901.50;5063532;28;20076;-66
2023/12/06 06:48:57;;;;;;;14.63;9.85;;;;;;;3.07;100.00;99905.94;5047410;28;20064;-65
2023/12/06 06:51:37;;;;;;;13.60;9.35;;;;;;;3.04;100.00;99919.09;5041441;28;20052;-66
2023/12/06 06:54:06;;;;;;;12.73;8.77;;;;;;;3.00;100.00;99912.19;5067781;28;20037;-68
2023/12/06 06:56:35;;;;;;;13.27;9.23;;;;;;;2.93;100.00;99916.72;5047890;28;20045;-68
2023/12/06 06:59:05;;;;;;;14.07;8.95;;;;;;;2.89;100.00;99917.69;5069974;28;20126;-67
2023/12/06 07:01:36;;;;;;;13.80;8.70;;;;;;;2.86;100.00;99922.13;5065265;28;20132;-67
2023/12/06 07:04:04;;;;;;;13.68;9.27;;;;;;;2.81;100.00;99927.50;5081999;28;20052;-67
2023/12/06 07:06:35;;;;;;;13.18;9.00;;;;;;;2.73;100.00;99918.94;5057325;28;20044;-68
2023/12/06 07:09:05;;;;;;;11.60;9.18;;;;;;;2.71;100.00;99932.03;5052545;28;20147;-66
2023/12/06 07:11:34;;;;;;;16.17;9.18;;;;;;;2.64;100.00;99914.78;5062083;28;20057;-66
2023/12/06 07:14:03;;;;;;;15.10;9.75;;;;;;;2.67;100.00;99926.94;5077908;28;20138;-66
2023/12/06 07:16:33;;;;;;;17.58;11.13;;;;;;;2.64;100.00;99927.88;5057902;28;20070;-65
2023/12/06 07:19:02;;;;;;;13.23;9.68;;;;;;;2.56;100.00;99926.28;5066821;28;20054;-66
2023/12/06 07:21:30;;;;;;;15.40;9.85;;;;;;;2.56;100.00;99937.63;5060153;28;20025;-67
2023/12/06 07:23:58;;;;;;;14.90;10.32;;;;;;;2.48;100.00;99944.78;5066955;28;20048;-67
2023/12/06 07:26:26;;;;;;;14.38;10.40;;;;;;;2.51;100.00;99942.09;5064052;28;20049;-66
2023/12/06 07:28:57;;;;;;;17.05;11.05;;;;;;;2.46;100.00;99950.03;5063481;28;20071;-67
2023/12/06 07:31:25;;;;;;;16.13;10.98;;;;;;;2.46;100.00;99964.84;5065944;28;20621;-68
2023/12/06 07:33:57;;;;;;;18.20;11.98;;;;;;;2.41;100.00;99967.56;5059541;28;20036;-67
2023/12/06 07:36:39;;;;;;;18.60;12.15;;;;;;;2.35;100.00;99965.09;5049884;28;20055;-68
2023/12/06 07:39:08;;;;;;;16.90;11.60;;;;;;;2.38;100.00;99975.44;5063536;28;20122;-67
2023/12/06 07:41:36;;;;;;;19.90;11.85;;;;;;;2.38;100.00;99979.81;5078044;28;20564;-68
2023/12/06 07:44:04;;;;;;;18.48;12.93;;;;;;;2.36;100.00;99981.63;5065990;28;20610;-66
2023/12/06 07:46:32;;;;;;;18.33;11.63;;;;;;;2.39;100.00;99984.16;5051085;28;20159;-67
2023/12/06 07:49:03;;;;;;;19.60;12.70;;;;;;;2.37;100.00;99992.00;5068693;28;20051;-66
2023/12/06 07:51:33;;;;;;;18.48;12.38;;;;;;;2.34;100.00;99989.50;5067639;28;20064;-66
2023/12/06 07:54:02;;;;;;;18.77;12.55;;;;;;;2.34;100.00;99984.25;5075891;28;20068;-67
2023/12/06 07:56:33;;;;;;;18.70;13.02;;;;;;;2.35;100.00;99996.44;5064836;28;20127;-66
2023/12/06 07:59:01;;;;;;;19.27;13.23;;;;;;;2.35;100.00;100004.28;5068746;28;20068;-67
2023/12/06 08:01:31;;;;;;;19.30;12.35;;;;;;;2.29;100.00;100000.91;5064580;28;20052;-67
2023/12/06 08:04:01;;;;;;;19.92;13.85;;;;;;;2.34;100.00;100007.78;5063171;28;20048;-67
2023/12/06 08:06:29;;;;;;;19.23;12.98;;;;;;;2.34;100.00;100013.00;5063040;28;20036;-66
2023/12/06 08:08:57;;;;;;;19.42;13.35;;;;;;;2.37;100.00;100018.13;5069276;28;20116;-67
2023/12/06 08:11:25;;;;;;;19.35;13.43;;;;;;;2.42;100.00;100018.06;5042518;28;20523;-68
2023/12/06 08:13:54;;;;;;;17.98;12.80;;;;;;;2.40;100.00;100018.09;5060881;28;20391;-66
2023/12/06 08:16:22;;;;;;;20.05;12.60;;;;;;;2.37;100.00;100012.06;5047360;28;20064;-66
2023/12/06 08:18:51;;;;;;;16.38;11.52;;;;;;;2.39;100.00;100025.94;5062450;28;20066;-65
2023/12/06 08:21:24;;;;;;;17.88;12.02;;;;;;;2.39;100.00;100026.81;5057723;28;20102;-67
2023/12/06 08:23:53;;;;;;;16.85;11.93;;;;;;;2.38;100.00;100035.53;5064553;28;20070;-66
2023/12/06 08:26:22;;;;;;;18.38;12.57;;;;;;;2.39;100.00;100047.72;5069436;28;20080;-67
2023/12/06 08:28:49;;;;;;;17.83;12.68;;;;;;;2.40;100.00;100059.03;5052322;28;20058;-67
2023/12/06 08:31:17;;;;;;;18.67;12.57;;;;;;;2.40;100.00;100064.25;5064984;28;20061;-67
2023/12/06 08:33:46;;;;;;;17.83;12.25;;;;;;;2.42;100.00;100068.56;5083502;28;22773;-67
2023/12/06 08:36:16;;;;;;;22.30;13.18;;;;;;;2.40;100.00;100070.34;5072194;28;20044;-68
2023/12/06 08:38:45;;;;;;;22.15;14.85;;;;;;;2.38;100.00;100071.25;5069238;28;20094;-68
2023/12/06 08:41:14;;;;;;;20.27;13.27;;;;;;;2.36;100.00;100075.69;5064001;28;20052;-66
2023/12/06 08:43:43;;;;;;;22.88;13.73;;;;;;;2.39;100.00;100079.06;5066767;28;20843;-67
2023/12/06 08:46:11;;;;;;;20.50;14.27;;;;;;;2.41;100.00;100066.84;5069830;28;20051;-68
2023/12/06 08:48:41;;;;;;;20.27;14.25;;;;;;;2.44;100.00;100081.63;5061458;28;20044;-67
2023/12/06 08:51:11;;;;;;;21.42;14.18;;;;;;;2.47;100.00;100076.34;5061334;28;20057;-69
2023/12/06 08:53:39;;;;;;;20.88;13.98;;;;;;;2.42;100.00;100068.56;5088768;28;20097;-67
2023/12/06 08:56:09;;;;;;;19.88;14.13;;;;;;;2.46;100.00;100079.84;5084590;28;20435;-67
2023/12/06 08:58:37;;;;;;;21.35;14.40;;;;;;;2.48;100.00;100072.84;5066503;28;20051;-68
2023/12/06 09:01:05;;;;;;;24.00;14.75;;;;;;;2.47;100.00;100081.56;5062662;28;20125;-66
2023/12/06 09:03:33;;;;;;;22.48;14.70;;;;;;;2.47;100.00;100079.81;5046929;28;20530;-67
2023/12/06 09:06:01;;;;;;;23.42;15.95;;;;;;;2.51;100.00;100090.22;5064989;28;20056;-67
2023/12/06 09:08:35;;;;;;;22.77;15.25;;;;;;;2.52;100.00;100094.56;5077306;28;21544;-67
2023/12/06 09:11:04;;;;;;;25.65;16.13;;;;;;;2.54;100.00;100098.84;5061337;28;21484;-67
2023/12/06 09:13:33;;;;;;;24.80;15.82;;;;;;;2.56;100.00;100097.06;5067945;28;20086;-67
2023/12/06 09:16:02;;;;;;;28.85;16.23;;;;;;;2.61;100.00;100107.44;5072917;28;20056;-67
2023/12/06 09:18:30;;;;;;;25.67;15.50;;;;;;;2.60;100.00;100110.94;5073671;28;20131;-66
2023/12/06 09:20:59;;;;;;;25.38;16.17;;;;;;;2.63;100.00;100119.59;5066161;28;20151;-67
2023/12/06 09:23:27;;;;;;;27.73;15.77;;;;;;;2.61;100.00;100116.13;5075705;28;20067;-67
2023/12/06 09:25:55;;;;;;;25.00;15.55;;;;;;;2.64;100.00;100116.09;5069131;28;20111;-66
2023/12/06 09:28:22;;;;;;;24.65;15.57;;;;;;;2.69;100.00;100127.28;5069653;28;20123;-66
2023/12/06 09:30:53;;;;;;;28.45;16.70;;;;;;;2.70;100.00;100130.78;5064341;28;20064;-66
2023/12/06 09:33:21;;;;;;;;;;;;;;;2.72;100.00;100135.09;5060825;28;20051;-68
2023/12/06 09:35:50;;;;;;;26.00;16.13;;;;;;;2.72;100.00;100134.22;5067949;28;19943;-68
2023/12/06 09:38:18;;;;;;;25.17;16.13;;;;;;;2.71;100.00;100143.81;5069305;28;20056;-69
2023/12/06 09:40:49;;;;;;;26.85;17.15;;;;;;;2.72;100.00;100149.91;5080228;28;20075;-69
2023/12/06 09:43:19;;;;;;;26.30;16.45;;;;;;;2.71;100.00;100146.44;5065733;28;20140;-67
2023/12/06 09:45:48;;;;;;;27.58;18.00;;;;;;;2.73;100.00;100151.63;5044689;28;20045;-68
2023/12/06 09:48:21;;;;;;;27.75;16.83;;;;;;;2.75;100.00;100155.09;5051025;28;20076;-70
2023/12/06 09:50:49;;;;;;;30.15;18.42;;;;;;;2.78;100.00;100150.66;5062350;28;20050;-67
2023/12/06 09:53:25;;;;;;;39.97;24.17;;;;;;;2.80;100.00;100148.88;5062564;28;20144;-68
2023/12/06 09:55:57;;;;;;;26.77;17.63;;;;;;;2.85;100.00;100150.53;5077748;28;20094;-67
2023/12/06 09:58:25;;;;;;;27.52;17.23;;;;;;;2.89;100.00;100154.81;5045551;28;20700;-67
2023/12/06 10:00:54;;;;;;;28.73;17.20;;;;;;;2.90;100.00;100164.38;5060448;28;20690;-66
2023/12/06 10:03:24;;;;;;;27.40;17.88;;;;;;;2.88;100.00;100161.78;5069651;28;20788;-65
2023/12/06 10:05:56;;;;;;;30.33;18.47;;;;;;;2.86;100.00;100167.94;5073973;28;20043;-67
2023/12/06 10:08:26;;;;;;;27.27;17.48;;;;;;;2.81;100.00;100163.69;5071668;28;20158;-66
2023/12/06 10:11:02;;;;;;;30.50;18.27;;;;;;;2.83;100.00;100168.91;5062472;28;20059;-66
2023/12/06 10:13:35;;;;;;;27.70;17.83;;;;;;;2.83;100.00;100164.50;5067687;28;20143;-66
2023/12/06 10:16:13;;;;;;;26.42;17.48;;;;;;;2.80;100.00;100159.34;5064383;28;20062;-66
2023/12/06 10:18:48;;;;;;;29.90;18.75;;;;;;;2.85;100.00;100164.47;5067172;28;20118;-66
2023/12/06 10:21:17;;;;;;;35.85;22.10;;;;;;;2.87;100.00;100159.22;5071905;28;20083;-67
2023/12/06 10:23:53;;;;;;;30.17;19.20;;;;;;;2.94;100.00;100176.53;5071473;28;20095;-67
2023/12/06 10:26:21;;;;;;;31.45;18.55;;;;;;;2.96;100.00;100179.97;5046216;28;20102;-66
2023/12/06 10:28:48;;;;;;;27.17;17.13;;;;;;;2.94;100.00;100182.63;5066049;28;20108;-67
2023/12/06 10:31:18;;;;;;;26.33;17.30;;;;;;;2.94;100.00;100179.13;5060514;28;20048;-66
2023/12/06 10:33:52;;;;;;;29.08;18.20;;;;;;;2.93;100.00;100183.50;5069384;28;20044;-67
2023/12/06 10:36:21;;;;;;;26.88;17.77;;;;;;;2.94;100.00;100185.22;5071038;28;20055;-65
2023/12/06 10:38:51;;;;;;;28.13;17.27;;;;;;;2.99;100.00;100187.75;5066301;28;20046;-67
2023/12/06 10:41:22;;;;;;;28.70;18.85;;;;;;;2.97;100.00;100186.94;5078036;28;20131;-67
2023/12/06 10:43:54;;;;;;;28.60;18.70;;;;;;;2.99;100.00;100183.38;5069479;28;20048;-67
2023/12/06 10:46:25;;;;;;;30.42;18.98;;;;;;;3.02;100.00;100180.69;5075658;28;20083;-67
2023/12/06 10:48:56;;;;;;;28.85;18.40;;;;;;;3.05;100.00;100185.88;5054425;28;20080;-67
2023/12/06 10:51:24;;;;;;;;;;;;;;;3.16;100.00;100181.28;5069678;28;20414;-66
2023/12/06 10:53:55;;;;;;;28.42;18.20;;;;;;;3.18;100.00;100182.13;5066756;28;19920;-68
2023/12/06 10:56:26;;;;;;;28.77;18.25;;;;;;;3.25;100.00;100187.22;5062733;28;20053;-67
2023/12/06 10:58:56;;;;;;;27.52;18.83;;;;;;;3.23;100.00;100183.78;5069866;28;20044;-68
2023/12/06 11:01:26;;;;;;;27.77;18.23;;;;;;;3.24;100.00;100182.88;5062186;28;20048;-68
2023/12/06 11:03:55;;;;;;;27.30;17.33;;;;;;;3.22;100.00;100176.81;5073652;28;20029;-67
2023/12/06 11:06:42;;;;;;;26.90;17.77;;;;;;;3.24;100.00;100180.28;5073056;28;20048;-68
2023/12/06 11:09:24;;;;;;;27.30;18.10;;;;;;;3.27;100.00;100181.09;5050931;28;20739;-68
2023/12/06 11:12:05;;;;;;;29.60;19.27;;;;;;;3.32;100.00;100180.97;5066051;28;20046;-68
2023/12/06 11:15:07;;;;;;;28.15;18.20;;;;;;;3.37;100.00;100179.97;5078867;28;20568;-67
2023/12/06 11:17:46;;;;;;;25.02;18.08;;;;;;;3.32;100.00;100184.44;5089299;28;20507;-68
2023/12/06 11:20:19;;;;;;;29.00;19.55;;;;;;;3.31;100.00;100190.56;5069036;28;20135;-68
2023/12/06 11:22:47;;;;;;;25.95;16.77;;;;;;;3.28;100.00;100188.03;5065872;28;20143;-67
2023/12/06 11:25:27;;;;;;;28.55;18.10;;;;;;;3.27;100.00;100193.31;5057408;28;20094;-68
2023/12/06 11:27:56;;;;;;;26.60;17.88;;;;;;;3.28;100.00;100187.19;5086638;28;20079;-69
2023/12/06 11:30:24;;;;;;;29.55;19.73;;;;;;;3.28;100.00;100189.78;5065509;28;20048;-67